createdAt,value
2022-09-05T00:01:45.564Z,15.90
2022-09-05T00:04:25.937Z,15.90
2022-09-05T00:07:58.478Z,16.00
2022-09-05T00:10:13.851Z,15.90
2022-09-05T00:12:43.626Z,15.90
2022-09-05T00:15:29.199Z,15.90
2022-09-05T00:20:51.056Z,15.70
2022-09-05T00:24:25.524Z,15.60
2022-09-05T00:24:30.778Z,15.50
2022-09-05T00:26:50.637Z,15.40
2022-09-05T00:30:26.922Z,15.50
2022-09-05T00:32:55.541Z,15.70
2022-09-05T00:35:30.988Z,15.60
2022-09-05T00:38:09.271Z,15.60
2022-09-05T00:40:41.474Z,15.50
2022-09-05T00:43:15.419Z,15.50
2022-09-05T00:45:50.488Z,15.50
2022-09-05T00:48:33.161Z,15.40
2022-09-05T00:51:21.239Z,15.60
2022-09-05T00:54:02.348Z,15.50
2022-09-05T00:56:56.330Z,15.40
2022-09-05T00:59:58.490Z,15.40
2022-09-05T01:02:52.049Z,15.20
2022-09-05T01:05:38.093Z,15.30
2022-09-05T01:08:26.775Z,15.50
2022-09-05T01:11:37.971Z,15.50
2022-09-05T01:14:42.069Z,15.40
2022-09-05T01:17:16.953Z,15.40
2022-09-05T01:19:56.681Z,15.10
2022-09-05T01:22:44.461Z,15.10
2022-09-05T01:25:51.033Z,15.10
2022-09-05T01:29:15.698Z,15.00
2022-09-05T01:31:37.770Z,15.20
2022-09-05T01:34:39.615Z,15.10
2022-09-05T01:37:24.945Z,15.10
2022-09-05T01:40:23.634Z,15.20
2022-09-05T01:43:05.455Z,15.00
2022-09-05T01:46:10.203Z,15.10
2022-09-05T01:48:56.979Z,15.00
2022-09-05T01:52:06.592Z,15.10
2022-09-05T01:55:13.871Z,14.90
2022-09-05T01:58:05.082Z,14.90
2022-09-05T02:00:56.595Z,15.00
2022-09-05T02:03:53.615Z,14.90
2022-09-05T02:06:29.402Z,14.70
2022-09-05T02:09:14.559Z,14.80
2022-09-05T02:12:07.057Z,14.80
2022-09-05T02:15:05.818Z,14.90
2022-09-05T02:17:50.667Z,14.90
2022-09-05T02:20:41.744Z,14.90
2022-09-05T02:23:32.669Z,14.70
2022-09-05T02:26:12.315Z,14.70
2022-09-05T02:28:56.027Z,14.70
2022-09-05T02:31:41.943Z,14.70
2022-09-05T02:34:23.792Z,14.60
2022-09-05T02:37:08.948Z,14.50
2022-09-05T02:45:01.579Z,14.50
2022-09-05T02:45:13.247Z,14.60
2022-09-05T02:46:04.454Z,14.70
2022-09-05T02:49:04.893Z,14.60
2022-09-05T02:57:29.428Z,14.60
2022-09-05T02:57:41.752Z,14.40
2022-09-05T02:58:08.809Z,14.30
2022-09-05T03:00:44.338Z,14.30
2022-09-05T03:03:26.309Z,14.50
2022-09-05T03:06:12.785Z,14.50
2022-09-05T03:09:09.966Z,14.40
2022-09-05T03:12:29.522Z,14.30
2022-09-05T03:15:31.866Z,14.30
2022-09-05T03:18:28.651Z,14.40
2022-09-05T03:21:26.927Z,14.40
2022-09-05T03:24:11.502Z,14.30
2022-09-05T03:26:53.494Z,14.20
2022-09-05T03:29:38.286Z,14.30
2022-09-05T03:32:23.644Z,14.30
2022-09-05T03:35:08.490Z,14.30
2022-09-05T03:37:41.410Z,14.20
2022-09-05T03:40:22.816Z,14.00
2022-09-05T03:42:56.558Z,14.10
2022-09-05T03:45:36.682Z,14.10
2022-09-05T03:48:28.619Z,14.10
2022-09-05T03:54:39.735Z,14.00
2022-09-05T03:57:27.375Z,14.00
2022-09-05T03:57:42.908Z,14.00
2022-09-05T04:00:22.438Z,14.00
2022-09-05T04:08:07.949Z,13.90
2022-09-05T04:08:19.347Z,13.90
2022-09-05T04:08:55.017Z,13.70
2022-09-05T04:11:40.552Z,13.80
2022-09-05T04:14:20.843Z,13.80
2022-09-05T04:16:56.222Z,13.90
2022-09-05T04:19:43.353Z,13.80
2022-09-05T04:22:28.242Z,13.70
2022-09-05T04:25:17.394Z,13.60
2022-09-05T04:28:22.102Z,13.70
2022-09-05T04:30:54.737Z,13.70
2022-09-05T04:33:53.728Z,13.80
2022-09-05T04:36:26.577Z,13.60
2022-09-05T04:39:25.607Z,13.50
2022-09-05T04:42:04.611Z,13.40
2022-09-05T04:44:37.296Z,13.40
2022-09-05T04:47:13.127Z,13.40
2022-09-05T04:50:08.156Z,13.40
2022-09-05T04:53:11.518Z,13.20
2022-09-05T04:55:55.347Z,13.20
2022-09-05T04:58:54.205Z,13.20
2022-09-05T05:06:01.927Z,13.30
2022-09-05T05:06:14.661Z,13.40
2022-09-05T05:07:30.393Z,13.60
2022-09-05T05:11:56.216Z,13.60
2022-09-05T05:17:58.282Z,13.60
2022-09-05T05:18:13.566Z,13.60
2022-09-05T05:19:20.535Z,13.60
2022-09-05T05:21:55.088Z,13.60
2022-09-05T05:24:32.665Z,13.70
2022-09-05T05:27:18.705Z,13.70
2022-09-05T05:30:02.676Z,13.80
2022-09-05T05:32:45.507Z,13.80
2022-09-05T05:35:15.940Z,13.80
2022-09-05T05:37:50.362Z,13.90
2022-09-05T05:40:16.970Z,13.90
2022-09-05T05:42:45.645Z,13.90
2022-09-05T05:45:20.017Z,14.00
2022-09-05T05:47:56.036Z,14.00
2022-09-05T05:50:53.470Z,14.10
2022-09-05T05:53:42.737Z,14.20
2022-09-05T05:56:37.478Z,14.30
2022-09-05T05:59:36.317Z,14.40
2022-09-05T06:02:12.104Z,14.40
2022-09-05T06:05:10.462Z,14.50
2022-09-05T06:09:32.410Z,14.60
2022-09-05T06:14:49.361Z,14.70
2022-09-05T06:15:08.799Z,14.70
2022-09-05T06:16:49.483Z,15.10
2022-09-05T06:19:31.866Z,15.00
2022-09-05T06:22:45.575Z,15.00
2022-09-05T06:25:52.497Z,15.10
2022-09-05T06:28:22.215Z,15.10
2022-09-05T06:31:30.308Z,15.10
2022-09-05T06:34:35.184Z,15.20
2022-09-05T06:37:46.254Z,15.30
2022-09-05T06:40:12.985Z,15.40
2022-09-05T06:42:56.979Z,15.40
2022-09-05T06:45:58.479Z,15.50
2022-09-05T06:49:31.312Z,15.70
2022-09-05T06:51:44.199Z,15.70
2022-09-05T06:54:35.857Z,15.80
2022-09-05T06:57:31.105Z,15.90
2022-09-05T07:00:23.163Z,16.00
2022-09-05T07:03:25.331Z,16.20
2022-09-05T07:06:48.041Z,16.80
2022-09-05T07:09:28.606Z,17.00
2022-09-05T07:12:12.056Z,17.20
2022-09-05T07:14:57.953Z,17.30
2022-09-05T07:18:10.240Z,17.40
2022-09-05T07:21:18.093Z,17.40
2022-09-05T07:24:10.506Z,17.10
2022-09-05T07:26:53.804Z,17.00
2022-09-05T07:29:40.575Z,17.20
2022-09-05T07:32:24.256Z,17.20
2022-09-05T07:34:52.645Z,17.30
2022-09-05T07:37:35.737Z,17.50
2022-09-05T07:40:11.564Z,17.50
2022-09-05T07:43:10.650Z,17.70
2022-09-05T07:45:56.071Z,17.90
2022-09-05T07:48:29.753Z,18.00
2022-09-05T07:56:52.923Z,18.30
2022-09-05T07:56:56.944Z,18.30
2022-09-05T07:57:04.916Z,18.30
2022-09-05T07:59:35.361Z,18.30
2022-09-05T08:02:03.452Z,18.40
2022-09-05T08:04:39.269Z,18.60
2022-09-05T08:07:47.925Z,18.70
2022-09-05T08:10:17.131Z,18.80
2022-09-05T08:13:22.634Z,19.10
2022-09-05T08:16:09.916Z,19.10
2022-09-05T08:18:52.927Z,19.40
2022-09-05T08:21:30.287Z,19.70
2022-09-05T08:24:13.246Z,19.70
2022-09-05T08:26:48.821Z,19.60
2022-09-05T08:29:41.954Z,19.70
2022-09-05T08:32:21.562Z,19.80
2022-09-05T08:34:56.687Z,20.00
2022-09-05T08:37:26.821Z,20.10
2022-09-05T08:40:07.252Z,20.50
2022-09-05T08:46:37.084Z,20.80
2022-09-05T08:46:44.682Z,20.80
2022-09-05T08:49:36.842Z,21.20
2022-09-05T08:52:37.954Z,21.30
2022-09-05T08:55:34.205Z,21.30
2022-09-05T08:58:13.322Z,21.40
2022-09-05T09:01:00.178Z,21.60
2022-09-05T09:03:55.396Z,22.10
2022-09-05T09:06:40.482Z,22.20
2022-09-05T09:09:32.911Z,22.20
2022-09-05T09:12:14.614Z,22.20
2022-09-05T09:15:10.820Z,22.60
2022-09-05T09:17:44.057Z,22.60
2022-09-05T09:20:22.062Z,22.80
2022-09-05T09:22:55.618Z,22.90
2022-09-05T09:25:34.277Z,23.50
2022-09-05T09:28:47.000Z,23.70
2022-09-05T09:31:42.958Z,23.70
2022-09-05T09:34:32.715Z,23.70
2022-09-05T09:37:40.276Z,23.90
2022-09-05T09:40:32.865Z,24.10
2022-09-05T09:43:35.302Z,24.40
2022-09-05T09:46:19.110Z,24.80
2022-09-05T09:49:26.127Z,24.90
2022-09-05T09:52:02.331Z,24.90
2022-09-05T09:54:53.835Z,24.80
2022-09-05T09:58:01.087Z,24.80
2022-09-05T10:00:55.722Z,25.30
2022-09-05T10:08:09.115Z,25.40
2022-09-05T10:10:53.553Z,25.70
2022-09-05T10:11:01.877Z,25.90
2022-09-05T10:13:27.323Z,26.00
2022-09-05T10:16:34.811Z,26.00
2022-09-05T10:22:45.355Z,26.30
2022-09-05T10:25:23.899Z,26.30
2022-09-05T10:28:04.572Z,26.30
2022-09-05T10:33:24.300Z,26.70
2022-09-05T10:35:15.251Z,26.70
2022-09-05T10:37:13.314Z,26.80
2022-09-05T10:39:47.072Z,27.20
2022-09-05T10:42:21.200Z,27.30
2022-09-05T10:44:55.985Z,27.20
2022-09-05T10:47:57.323Z,27.40
2022-09-05T10:50:49.378Z,27.40
2022-09-05T10:53:26.357Z,26.90
2022-09-05T10:56:06.819Z,27.10
2022-09-05T11:01:20.728Z,26.70
2022-09-05T11:02:27.584Z,26.60
2022-09-05T11:05:26.391Z,27.10
2022-09-05T11:08:19.417Z,27.40
2022-09-05T11:11:01.568Z,27.90
2022-09-05T11:13:46.079Z,27.70
2022-09-05T11:16:19.320Z,28.00
2022-09-05T11:19:04.000Z,27.90
2022-09-05T11:21:40.999Z,27.60
2022-09-05T11:24:36.199Z,27.50
2022-09-05T11:27:23.650Z,28.00
2022-09-05T11:30:04.303Z,28.40
2022-09-05T11:39:45.603Z,28.40
2022-09-05T11:39:54.023Z,28.00
2022-09-05T11:40:10.678Z,27.90
2022-09-05T11:41:48.897Z,27.60
2022-09-05T11:44:29.634Z,27.40
2022-09-05T11:47:29.930Z,27.30
2022-09-05T11:50:43.425Z,27.40
2022-09-05T11:53:37.119Z,28.00
2022-09-05T11:56:44.065Z,27.90
2022-09-05T11:59:33.471Z,28.10
2022-09-05T12:02:26.355Z,28.00
2022-09-05T12:05:49.163Z,27.80
2022-09-05T12:08:36.324Z,27.70
2022-09-05T12:11:31.409Z,28.00
2022-09-05T12:14:32.118Z,28.60
2022-09-05T12:17:10.133Z,28.80
2022-09-05T12:20:06.030Z,28.60
2022-09-05T12:22:51.915Z,28.20
2022-09-05T12:27:42.321Z,27.80
2022-09-05T12:29:26.428Z,27.60
2022-09-05T12:34:12.008Z,27.40
2022-09-05T12:36:12.451Z,27.30
2022-09-05T12:40:55.102Z,27.30
2022-09-05T12:41:44.542Z,27.30
2022-09-05T12:44:42.584Z,27.30
2022-09-05T12:47:18.845Z,27.30
2022-09-05T12:50:15.169Z,27.40
2022-09-05T12:52:46.261Z,27.60
2022-09-05T12:55:26.730Z,28.00
2022-09-05T13:03:02.325Z,28.50
2022-09-05T13:03:02.597Z,28.30
2022-09-05T13:04:13.100Z,28.10
2022-09-05T13:06:39.008Z,27.90
2022-09-05T13:09:19.967Z,27.90
2022-09-05T13:14:57.071Z,27.80
2022-09-05T13:15:18.765Z,27.80
2022-09-05T13:18:01.689Z,27.70
2022-09-05T13:20:36.533Z,27.80
2022-09-05T13:23:25.828Z,28.00
2022-09-05T13:26:00.809Z,28.30
2022-09-05T13:28:37.277Z,28.70
2022-09-05T13:37:55.899Z,29.10
2022-09-05T13:38:15.467Z,29.40
2022-09-05T13:38:16.164Z,29.30
2022-09-05T13:39:48.988Z,29.40
2022-09-05T13:42:20.018Z,29.70
2022-09-05T13:44:53.777Z,29.80
2022-09-05T13:47:57.535Z,29.90
2022-09-05T13:50:38.935Z,29.70
2022-09-05T13:53:31.027Z,29.80
2022-09-05T13:56:28.742Z,29.90
2022-09-05T13:59:10.817Z,30.10
2022-09-05T14:01:44.187Z,30.10
2022-09-05T14:05:20.071Z,30.20
2022-09-05T14:08:18.700Z,30.30
2022-09-05T14:10:55.930Z,30.10
2022-09-05T14:13:27.329Z,30.40
2022-09-05T14:16:07.463Z,30.00
2022-09-05T14:19:05.106Z,30.10
2022-09-05T14:21:36.809Z,30.20
2022-09-05T14:24:15.852Z,30.50
2022-09-05T14:27:06.050Z,30.40
2022-09-05T14:29:52.246Z,30.40
2022-09-05T14:37:39.666Z,30.50
2022-09-05T14:37:40.627Z,30.60
2022-09-05T14:38:44.375Z,30.70
2022-09-05T14:41:54.605Z,30.60
2022-09-05T14:45:15.433Z,30.10
2022-09-05T14:48:04.085Z,29.70
2022-09-05T14:50:38.990Z,29.60
2022-09-05T14:56:30.671Z,29.40
2022-09-05T15:02:49.360Z,29.20
2022-09-05T15:02:52.606Z,29.10
2022-09-05T15:05:11.215Z,29.40
2022-09-05T15:07:43.042Z,29.40
2022-09-05T15:12:19.832Z,29.30
2022-09-05T15:13:16.832Z,29.20
2022-09-05T15:16:12.610Z,29.10
2022-09-05T15:18:44.524Z,29.10
2022-09-05T15:21:35.386Z,29.10
2022-09-05T15:24:15.723Z,29.00
2022-09-05T15:26:52.599Z,29.00
2022-09-05T15:29:24.111Z,29.00
2022-09-05T15:31:53.309Z,28.80
2022-09-05T15:34:38.529Z,28.60
2022-09-05T15:37:31.656Z,28.60
2022-09-05T15:40:04.837Z,28.60
2022-09-05T15:43:01.986Z,28.60
2022-09-05T15:45:37.265Z,28.60
2022-09-05T15:48:04.260Z,28.70
2022-09-05T15:50:51.491Z,28.70
2022-09-05T15:53:38.182Z,28.70
2022-09-05T15:56:25.133Z,28.80
2022-09-05T15:58:56.510Z,28.70
2022-09-05T16:01:58.136Z,28.60
2022-09-05T16:10:27.276Z,28.60
2022-09-05T16:10:39.837Z,28.60
2022-09-05T16:10:39.842Z,28.60
2022-09-05T16:13:13.794Z,28.50
2022-09-05T16:21:34.357Z,28.50
2022-09-05T16:23:13.192Z,28.60
2022-09-05T16:23:25.122Z,28.60
2022-09-05T16:24:33.557Z,28.50
2022-09-05T16:27:12.201Z,28.40
2022-09-05T16:29:41.738Z,28.40
2022-09-05T16:32:18.821Z,28.40
2022-09-05T16:34:58.935Z,28.40
2022-09-05T16:37:34.535Z,28.30
2022-09-05T16:40:14.484Z,28.20
2022-09-05T16:42:47.479Z,28.20
2022-09-05T16:45:29.649Z,28.20
2022-09-05T16:48:33.947Z,28.10
2022-09-05T16:51:35.479Z,28.00
2022-09-05T16:54:05.734Z,28.10
2022-09-05T16:56:45.262Z,28.00
2022-09-05T16:59:15.840Z,27.90
2022-09-05T17:02:06.743Z,27.90
2022-09-05T17:04:42.760Z,27.80
2022-09-05T17:07:44.720Z,27.70
2022-09-05T17:10:20.597Z,27.60
2022-09-05T17:12:51.964Z,27.50
2022-09-05T17:15:52.010Z,27.30
2022-09-05T17:18:25.173Z,27.20
2022-09-05T17:20:56.717Z,27.10
2022-09-05T17:29:18.431Z,27.10
2022-09-05T17:29:30.725Z,27.10
2022-09-05T17:32:48.952Z,26.90
2022-09-05T17:35:20.327Z,27.00
2022-09-05T17:38:11.454Z,26.90
2022-09-05T17:40:59.791Z,26.80
2022-09-05T17:43:31.082Z,26.80
2022-09-05T17:46:21.743Z,26.80
2022-09-05T17:48:49.283Z,26.70
2022-09-05T17:51:35.079Z,26.60
2022-09-05T17:54:15.659Z,26.50
2022-09-05T17:56:44.248Z,26.30
2022-09-05T17:59:13.938Z,26.10
2022-09-05T18:01:45.998Z,25.90
2022-09-05T18:04:46.186Z,25.80
2022-09-05T18:07:25.450Z,25.70
2022-09-05T18:13:12.919Z,25.30
2022-09-05T18:15:35.971Z,25.20
2022-09-05T18:21:12.281Z,24.80
2022-09-05T18:24:21.289Z,24.70
2022-09-05T18:27:11.325Z,24.50
2022-09-05T18:29:58.358Z,24.40
2022-09-05T18:32:40.969Z,24.20
2022-09-05T18:35:37.640Z,24.00
2022-09-05T18:38:05.299Z,23.80
2022-09-05T18:40:48.492Z,23.70
2022-09-05T18:43:28.310Z,23.60
2022-09-05T18:46:14.822Z,23.50
2022-09-05T18:50:15.805Z,23.40
2022-09-05T18:52:12.974Z,23.30
2022-09-05T18:54:44.075Z,23.10
2022-09-05T18:57:29.289Z,23.00
2022-09-05T19:00:10.352Z,22.90
2022-09-05T19:02:51.236Z,22.90
2022-09-05T19:05:47.067Z,22.80
2022-09-05T19:08:28.986Z,22.70
2022-09-05T19:11:01.857Z,22.60
2022-09-05T19:13:49.186Z,22.50
2022-09-05T19:16:47.168Z,22.40
2022-09-05T19:19:18.359Z,22.50
2022-09-05T19:22:33.315Z,22.30
2022-09-05T19:24:44.829Z,22.30
2022-09-05T19:27:53.190Z,22.20
2022-09-05T19:36:47.313Z,22.20
2022-09-05T19:36:55.586Z,22.10
2022-09-05T19:37:12.348Z,21.90
2022-09-05T19:38:24.070Z,21.80
2022-09-05T19:47:31.593Z,21.80
2022-09-05T19:47:42.238Z,21.70
2022-09-05T19:47:43.459Z,21.60
2022-09-05T19:49:39.072Z,21.40
2022-09-05T19:52:17.933Z,21.40
2022-09-05T19:54:50.973Z,21.40
2022-09-05T19:57:20.195Z,21.30
2022-09-05T19:59:53.377Z,21.30
2022-09-05T20:02:33.084Z,21.30
2022-09-05T20:05:01.624Z,21.30
2022-09-05T20:07:31.353Z,21.20
2022-09-05T20:10:01.633Z,21.00
2022-09-05T20:12:31.318Z,21.10
2022-09-05T20:15:17.907Z,21.00
2022-09-05T20:17:46.012Z,21.00
2022-09-05T20:20:18.135Z,21.00
2022-09-05T20:22:50.707Z,20.90
2022-09-05T20:25:40.112Z,20.80
2022-09-05T20:28:10.762Z,20.90
2022-09-05T20:30:41.904Z,20.80
2022-09-05T20:33:31.423Z,20.80
2022-09-05T20:42:55.444Z,20.60
2022-09-05T20:43:21.593Z,20.80
2022-09-05T20:43:23.647Z,20.60
2022-09-05T20:44:41.272Z,20.70
2022-09-05T20:50:32.064Z,20.70
2022-09-05T20:54:13.199Z,20.60
2022-09-05T20:54:14.019Z,20.70
2022-09-05T20:56:01.535Z,20.70
2022-09-05T20:58:31.478Z,20.60
2022-09-05T21:01:21.747Z,20.50
2022-09-05T21:04:03.835Z,20.30
2022-09-05T21:06:33.986Z,20.30
2022-09-05T21:09:25.025Z,20.30
2022-09-05T21:11:55.710Z,20.10
2022-09-05T21:14:24.174Z,20.00
2022-09-05T21:16:56.804Z,20.00
2022-09-05T21:19:31.956Z,20.10
2022-09-05T21:22:20.144Z,19.90
2022-09-05T21:24:47.309Z,19.90
2022-09-05T21:27:17.815Z,19.90
2022-09-05T21:29:44.681Z,19.80
2022-09-05T21:32:16.101Z,19.70
2022-09-05T21:34:52.776Z,19.70
2022-09-05T21:37:20.397Z,19.70
2022-09-05T21:39:59.191Z,19.60
2022-09-05T21:43:46.558Z,19.60
2022-09-05T21:47:45.066Z,19.80
2022-09-05T21:48:08.109Z,19.70
2022-09-05T21:50:42.418Z,19.80
2022-09-05T21:59:13.468Z,19.80
2022-09-05T21:59:24.253Z,19.80
2022-09-05T21:59:26.348Z,19.60
2022-09-05T22:02:05.391Z,19.60
2022-09-05T22:04:37.111Z,19.50
2022-09-05T22:07:08.105Z,19.30
2022-09-05T22:09:34.793Z,19.20
2022-09-05T22:12:06.139Z,19.40
2022-09-05T22:14:48.134Z,19.50
2022-09-05T22:17:14.808Z,19.60
2022-09-05T22:19:41.461Z,19.60
2022-09-05T22:22:16.828Z,19.50
2022-09-05T22:24:55.152Z,19.50
2022-09-05T22:27:22.919Z,19.40
2022-09-05T22:29:51.162Z,19.30
2022-09-05T22:32:34.339Z,19.20
2022-09-05T22:35:16.000Z,19.20
2022-09-05T22:38:20.580Z,19.10
2022-09-05T22:40:49.283Z,19.00
2022-09-05T22:43:16.551Z,19.00
2022-09-05T22:45:43.382Z,19.10
2022-09-05T22:48:14.636Z,19.00
2022-09-05T22:50:42.668Z,19.00
2022-09-05T22:53:10.420Z,19.00
2022-09-05T22:55:42.746Z,18.90
2022-09-05T22:58:14.355Z,19.00
2022-09-05T23:00:41.830Z,18.80
2022-09-05T23:03:08.663Z,18.90
2022-09-05T23:05:35.350Z,18.90
2022-09-05T23:08:04.362Z,18.90
2022-09-05T23:10:31.475Z,18.80
2022-09-05T23:12:58.759Z,18.80
2022-09-05T23:15:25.937Z,18.70
2022-09-05T23:17:54.589Z,18.70
2022-09-05T23:20:22.235Z,18.50
2022-09-05T23:22:48.881Z,18.40
2022-09-05T23:25:16.097Z,18.40
2022-09-05T23:27:43.082Z,18.30
2022-09-05T23:30:11.106Z,18.10
2022-09-05T23:32:47.335Z,18.00
2022-09-05T23:35:14.897Z,18.10
2022-09-05T23:37:45.869Z,18.00
2022-09-05T23:40:14.410Z,17.90
2022-09-05T23:42:41.614Z,18.00
2022-09-05T23:45:09.346Z,18.00
2022-09-05T23:47:36.570Z,18.00
2022-09-05T23:50:04.230Z,17.90
2022-09-05T23:52:30.972Z,17.90
2022-09-05T23:54:57.728Z,18.00
2022-09-05T23:57:24.460Z,17.90
2022-09-05T23:59:52.525Z,17.90
